sensor_id;sensor_type;location;lat;lon;timestamp;P1;durP1;ratioP1;P2;durP2;ratioP2
69847;SDS011;57143;55.940;37.496;2022-12-10T00:01:54;20.85;;;7.75;;
69847;SDS011;57143;55.940;37.496;2022-12-10T00:04:21;25.05;;;8.85;;
69847;SDS011;57143;55.940;37.496;2022-12-10T00:06:49;26.30;;;8.93;;
69847;SDS011;57143;55.940;37.496;2022-12-10T00:09:16;27.10;;;9.77;;
69847;SDS011;57143;55.940;37.496;2022-12-10T00:11:45;22.92;;;8.63;;
69847;SDS011;57143;55.940;37.496;2022-12-10T00:14:12;25.02;;;9.82;;
69847;SDS011;57143;55.940;37.496;2022-12-10T00:16:41;26.88;;;8.20;;
69847;SDS011;57143;55.940;37.496;2022-12-10T00:19:08;23.88;;;7.75;;
69847;SDS011;57143;55.940;37.496;2022-12-10T00:21:36;26.53;;;7.70;;
69847;SDS011;57143;55.940;37.496;2022-12-10T00:24:03;23.33;;;7.53;;
69847;SDS011;57143;55.940;37.496;2022-12-10T00:26:32;26.30;;;7.50;;
69847;SDS011;57143;55.940;37.496;2022-12-10T00:29:01;24.45;;;7.68;;
69847;SDS011;57143;55.940;37.496;2022-12-10T00:31:30;24.85;;;7.85;;
69847;SDS011;57143;55.940;37.496;2022-12-10T00:34:02;27.03;;;7.50;;
69847;SDS011;57143;55.940;37.496;2022-12-10T00:36:31;23.40;;;8.07;;
69847;SDS011;57143;55.940;37.496;2022-12-10T00:39:00;22.77;;;6.82;;
69847;SDS011;57143;55.940;37.496;2022-12-10T00:41:28;21.80;;;7.68;;
69847;SDS011;57143;55.940;37.496;2022-12-10T00:43:55;22.27;;;7.38;;
69847;SDS011;57143;55.940;37.496;2022-12-10T00:46:23;19.50;;;6.50;;
69847;SDS011;57143;55.940;37.496;2022-12-10T00:48:50;25.63;;;7.97;;
69847;SDS011;57143;55.940;37.496;2022-12-10T00:51:19;26.23;;;8.23;;
69847;SDS011;57143;55.940;37.496;2022-12-10T00:53:48;27.13;;;8.13;;
69847;SDS011;57143;55.940;37.496;2022-12-10T00:56:17;23.83;;;7.50;;
69847;SDS011;57143;55.940;37.496;2022-12-10T00:58:46;23.60;;;7.83;;
69847;SDS011;57143;55.940;37.496;2022-12-10T01:01:15;25.65;;;7.30;;
69847;SDS011;57143;55.940;37.496;2022-12-10T01:03:43;29.60;;;8.57;;
69847;SDS011;57143;55.940;37.496;2022-12-10T01:06:12;18.58;;;6.65;;
69847;SDS011;57143;55.940;37.496;2022-12-10T01:08:42;25.20;;;8.55;;
69847;SDS011;57143;55.940;37.496;2022-12-10T01:11:11;27.90;;;8.93;;
69847;SDS011;57143;55.940;37.496;2022-12-10T01:13:40;22.42;;;7.80;;
69847;SDS011;57143;55.940;37.496;2022-12-10T01:16:08;32.90;;;10.05;;
69847;SDS011;57143;55.940;37.496;2022-12-10T01:18:37;30.20;;;9.07;;
69847;SDS011;57143;55.940;37.496;2022-12-10T01:21:04;20.92;;;7.28;;
69847;SDS011;57143;55.940;37.496;2022-12-10T01:23:35;25.33;;;8.20;;
69847;SDS011;57143;55.940;37.496;2022-12-10T01:26:06;20.55;;;6.55;;
69847;SDS011;57143;55.940;37.496;2022-12-10T01:28:35;27.83;;;8.88;;
69847;SDS011;57143;55.940;37.496;2022-12-10T01:31:04;27.70;;;8.93;;
69847;SDS011;57143;55.940;37.496;2022-12-10T01:33:34;24.45;;;8.00;;
69847;SDS011;57143;55.940;37.496;2022-12-10T01:36:02;26.80;;;9.10;;
69847;SDS011;57143;55.940;37.496;2022-12-10T01:38:30;29.30;;;7.68;;
69847;SDS011;57143;55.940;37.496;2022-12-10T01:40:57;25.20;;;8.10;;
69847;SDS011;57143;55.940;37.496;2022-12-10T01:43:26;27.50;;;8.60;;
69847;SDS011;57143;55.940;37.496;2022-12-10T01:45:53;28.30;;;8.40;;
69847;SDS011;57143;55.940;37.496;2022-12-10T01:48:21;29.03;;;8.90;;
69847;SDS011;57143;55.940;37.496;2022-12-10T01:50:48;35.33;;;8.77;;
69847;SDS011;57143;55.940;37.496;2022-12-10T01:53:15;23.15;;;8.10;;
69847;SDS011;57143;55.940;37.496;2022-12-10T01:55:44;26.88;;;9.20;;
69847;SDS011;57143;55.940;37.496;2022-12-10T01:58:14;30.13;;;9.68;;
69847;SDS011;57143;55.940;37.496;2022-12-10T02:00:46;28.60;;;8.73;;
69847;SDS011;57143;55.940;37.496;2022-12-10T02:03:24;29.58;;;9.40;;
69847;SDS011;57143;55.940;37.496;2022-12-10T02:06:01;27.58;;;8.65;;
69847;SDS011;57143;55.940;37.496;2022-12-10T02:08:35;26.27;;;8.48;;
69847;SDS011;57143;55.940;37.496;2022-12-10T02:11:09;27.67;;;8.63;;
69847;SDS011;57143;55.940;37.496;2022-12-10T02:13:42;29.00;;;8.40;;
69847;SDS011;57143;55.940;37.496;2022-12-10T02:16:16;22.92;;;8.32;;
69847;SDS011;57143;55.940;37.496;2022-12-10T02:18:48;29.98;;;8.43;;
69847;SDS011;57143;55.940;37.496;2022-12-10T02:21:21;28.63;;;10.15;;
69847;SDS011;57143;55.940;37.496;2022-12-10T02:23:51;34.72;;;9.60;;
69847;SDS011;57143;55.940;37.496;2022-12-10T02:26:25;31.17;;;9.47;;
69847;SDS011;57143;55.940;37.496;2022-12-10T02:29:05;25.75;;;9.57;;
69847;SDS011;57143;55.940;37.496;2022-12-10T02:31:37;32.33;;;9.60;;
69847;SDS011;57143;55.940;37.496;2022-12-10T02:34:09;29.30;;;9.73;;
69847;SDS011;57143;55.940;37.496;2022-12-10T02:36:37;27.98;;;9.38;;
69847;SDS011;57143;55.940;37.496;2022-12-10T02:39:09;29.10;;;10.00;;
69847;SDS011;57143;55.940;37.496;2022-12-10T02:41:42;36.45;;;10.25;;
69847;SDS011;57143;55.940;37.496;2022-12-10T02:44:15;38.55;;;11.95;;
69847;SDS011;57143;55.940;37.496;2022-12-10T02:46:45;32.58;;;11.25;;
69847;SDS011;57143;55.940;37.496;2022-12-10T02:49:15;37.80;;;11.00;;
69847;SDS011;57143;55.940;37.496;2022-12-10T02:51:44;27.03;;;9.33;;
69847;SDS011;57143;55.940;37.496;2022-12-10T02:57:03;32.47;;;8.80;;
69847;SDS011;57143;55.940;37.496;2022-12-10T02:59:42;26.55;;;7.25;;
69847;SDS011;57143;55.940;37.496;2022-12-10T03:02:19;28.45;;;8.48;;
69847;SDS011;57143;55.940;37.496;2022-12-10T03:04:52;33.33;;;9.37;;
69847;SDS011;57143;55.940;37.496;2022-12-10T03:07:25;30.60;;;9.02;;
69847;SDS011;57143;55.940;37.496;2022-12-10T03:10:02;35.28;;;9.20;;
69847;SDS011;57143;55.940;37.496;2022-12-10T03:12:35;35.45;;;8.63;;
69847;SDS011;57143;55.940;37.496;2022-12-10T03:15:08;34.95;;;7.75;;
69847;SDS011;57143;55.940;37.496;2022-12-10T03:17:37;30.67;;;9.37;;
69847;SDS011;57143;55.940;37.496;2022-12-10T03:20:08;31.23;;;8.38;;
69847;SDS011;57143;55.940;37.496;2022-12-10T03:22:39;42.30;;;8.77;;
69847;SDS011;57143;55.940;37.496;2022-12-10T03:25:10;32.63;;;8.38;;
69847;SDS011;57143;55.940;37.496;2022-12-10T03:27:40;64.38;;;10.35;;
69847;SDS011;57143;55.940;37.496;2022-12-10T03:30:10;38.13;;;9.13;;
69847;SDS011;57143;55.940;37.496;2022-12-10T03:32:37;42.10;;;9.68;;
69847;SDS011;57143;55.940;37.496;2022-12-10T03:35:05;45.33;;;10.10;;
69847;SDS011;57143;55.940;37.496;2022-12-10T03:37:33;34.13;;;8.73;;
69847;SDS011;57143;55.940;37.496;2022-12-10T03:40:01;46.03;;;10.43;;
69847;SDS011;57143;55.940;37.496;2022-12-10T03:42:29;44.27;;;10.77;;
69847;SDS011;57143;55.940;37.496;2022-12-10T03:44:57;36.75;;;11.40;;
69847;SDS011;57143;55.940;37.496;2022-12-10T03:47:25;35.10;;;9.48;;
69847;SDS011;57143;55.940;37.496;2022-12-10T03:49:52;43.50;;;9.93;;
69847;SDS011;57143;55.940;37.496;2022-12-10T03:52:19;47.63;;;12.65;;
69847;SDS011;57143;55.940;37.496;2022-12-10T03:54:46;52.80;;;11.13;;
69847;SDS011;57143;55.940;37.496;2022-12-10T03:57:13;42.03;;;9.90;;
69847;SDS011;57143;55.940;37.496;2022-12-10T03:59:41;48.08;;;11.85;;
69847;SDS011;57143;55.940;37.496;2022-12-10T04:02:08;38.72;;;9.35;;
69847;SDS011;57143;55.940;37.496;2022-12-10T04:04:37;57.30;;;12.90;;
69847;SDS011;57143;55.940;37.496;2022-12-10T04:07:04;38.63;;;10.80;;
69847;SDS011;57143;55.940;37.496;2022-12-10T04:09:31;45.80;;;11.60;;
69847;SDS011;57143;55.940;37.496;2022-12-10T04:11:58;44.42;;;11.80;;
69847;SDS011;57143;55.940;37.496;2022-12-10T04:14:26;45.55;;;11.95;;
69847;SDS011;57143;55.940;37.496;2022-12-10T04:17:11;45.08;;;11.95;;
69847;SDS011;57143;55.940;37.496;2022-12-10T04:19:40;46.90;;;11.73;;
69847;SDS011;57143;55.940;37.496;2022-12-10T04:22:10;43.75;;;11.88;;
69847;SDS011;57143;55.940;37.496;2022-12-10T04:24:55;57.40;;;11.57;;
69847;SDS011;57143;55.940;37.496;2022-12-10T04:27:48;37.20;;;10.65;;
69847;SDS011;57143;55.940;37.496;2022-12-10T04:30:15;42.22;;;11.00;;
69847;SDS011;57143;55.940;37.496;2022-12-10T04:32:42;46.70;;;12.83;;
69847;SDS011;57143;55.940;37.496;2022-12-10T04:35:11;44.53;;;11.93;;
69847;SDS011;57143;55.940;37.496;2022-12-10T04:37:39;39.90;;;11.50;;
69847;SDS011;57143;55.940;37.496;2022-12-10T04:40:07;50.00;;;12.32;;
69847;SDS011;57143;55.940;37.496;2022-12-10T04:42:35;50.22;;;13.23;;
69847;SDS011;57143;55.940;37.496;2022-12-10T04:45:02;47.00;;;11.50;;
69847;SDS011;57143;55.940;37.496;2022-12-10T04:47:30;40.22;;;11.25;;
69847;SDS011;57143;55.940;37.496;2022-12-10T04:49:57;42.72;;;11.23;;
69847;SDS011;57143;55.940;37.496;2022-12-10T04:52:25;38.08;;;10.90;;
69847;SDS011;57143;55.940;37.496;2022-12-10T04:54:52;44.05;;;11.80;;
69847;SDS011;57143;55.940;37.496;2022-12-10T04:57:19;47.40;;;12.67;;
69847;SDS011;57143;55.940;37.496;2022-12-10T04:59:46;57.53;;;13.50;;
69847;SDS011;57143;55.940;37.496;2022-12-10T05:02:13;50.33;;;12.20;;
69847;SDS011;57143;55.940;37.496;2022-12-10T05:04:41;51.20;;;13.50;;
69847;SDS011;57143;55.940;37.496;2022-12-10T05:07:08;51.65;;;13.52;;
69847;SDS011;57143;55.940;37.496;2022-12-10T05:09:36;45.73;;;12.50;;
69847;SDS011;57143;55.940;37.496;2022-12-10T05:12:04;49.05;;;12.68;;
69847;SDS011;57143;55.940;37.496;2022-12-10T05:14:31;42.78;;;12.30;;
69847;SDS011;57143;55.940;37.496;2022-12-10T05:16:59;36.30;;;11.90;;
69847;SDS011;57143;55.940;37.496;2022-12-10T05:19:26;44.92;;;12.77;;
69847;SDS011;57143;55.940;37.496;2022-12-10T05:21:53;38.37;;;10.30;;
69847;SDS011;57143;55.940;37.496;2022-12-10T05:24:39;38.15;;;12.95;;
69847;SDS011;57143;55.940;37.496;2022-12-10T05:27:06;38.22;;;10.93;;
69847;SDS011;57143;55.940;37.496;2022-12-10T05:29:33;40.25;;;10.90;;
69847;SDS011;57143;55.940;37.496;2022-12-10T05:32:00;38.92;;;12.48;;
69847;SDS011;57143;55.940;37.496;2022-12-10T05:34:28;39.20;;;11.40;;
69847;SDS011;57143;55.940;37.496;2022-12-10T05:36:56;41.53;;;11.85;;
69847;SDS011;57143;55.940;37.496;2022-12-10T05:39:23;34.63;;;11.65;;
69847;SDS011;57143;55.940;37.496;2022-12-10T05:41:51;31.83;;;11.00;;
69847;SDS011;57143;55.940;37.496;2022-12-10T05:44:19;33.08;;;11.00;;
69847;SDS011;57143;55.940;37.496;2022-12-10T05:46:46;34.73;;;11.93;;
69847;SDS011;57143;55.940;37.496;2022-12-10T05:49:13;38.47;;;12.63;;
69847;SDS011;57143;55.940;37.496;2022-12-10T05:51:40;41.45;;;12.93;;
69847;SDS011;57143;55.940;37.496;2022-12-10T05:54:07;38.75;;;12.55;;
69847;SDS011;57143;55.940;37.496;2022-12-10T05:56:36;42.33;;;11.63;;
69847;SDS011;57143;55.940;37.496;2022-12-10T05:59:05;43.43;;;12.50;;
69847;SDS011;57143;55.940;37.496;2022-12-10T06:01:32;40.25;;;12.23;;
69847;SDS011;57143;55.940;37.496;2022-12-10T06:04:02;40.22;;;12.10;;
69847;SDS011;57143;55.940;37.496;2022-12-10T06:06:31;41.17;;;11.75;;
69847;SDS011;57143;55.940;37.496;2022-12-10T06:09:00;37.25;;;12.35;;
69847;SDS011;57143;55.940;37.496;2022-12-10T06:11:27;40.07;;;12.33;;
69847;SDS011;57143;55.940;37.496;2022-12-10T06:13:55;37.17;;;13.20;;
69847;SDS011;57143;55.940;37.496;2022-12-10T06:16:25;35.53;;;11.50;;
69847;SDS011;57143;55.940;37.496;2022-12-10T06:18:53;38.42;;;12.07;;
69847;SDS011;57143;55.940;37.496;2022-12-10T06:21:22;36.13;;;12.65;;
69847;SDS011;57143;55.940;37.496;2022-12-10T06:23:49;39.73;;;13.30;;
69847;SDS011;57143;55.940;37.496;2022-12-10T06:26:18;37.92;;;12.93;;
69847;SDS011;57143;55.940;37.496;2022-12-10T06:28:47;38.60;;;12.40;;
69847;SDS011;57143;55.940;37.496;2022-12-10T06:31:14;40.85;;;13.25;;
69847;SDS011;57143;55.940;37.496;2022-12-10T06:33:43;41.92;;;12.73;;
69847;SDS011;57143;55.940;37.496;2022-12-10T06:36:11;44.33;;;13.30;;
69847;SDS011;57143;55.940;37.496;2022-12-10T06:38:40;43.28;;;13.63;;
69847;SDS011;57143;55.940;37.496;2022-12-10T06:41:08;47.08;;;14.48;;
69847;SDS011;57143;55.940;37.496;2022-12-10T06:43:37;44.65;;;13.40;;
69847;SDS011;57143;55.940;37.496;2022-12-10T06:46:07;40.13;;;14.55;;
69847;SDS011;57143;55.940;37.496;2022-12-10T06:48:38;38.10;;;14.57;;
69847;SDS011;57143;55.940;37.496;2022-12-10T06:51:07;50.28;;;14.98;;
69847;SDS011;57143;55.940;37.496;2022-12-10T06:53:36;45.75;;;14.75;;
69847;SDS011;57143;55.940;37.496;2022-12-10T06:56:04;48.10;;;14.75;;
69847;SDS011;57143;55.940;37.496;2022-12-10T06:58:35;54.60;;;15.65;;
69847;SDS011;57143;55.940;37.496;2022-12-10T07:01:03;47.90;;;15.23;;
69847;SDS011;57143;55.940;37.496;2022-12-10T07:03:31;48.67;;;16.10;;
69847;SDS011;57143;55.940;37.496;2022-12-10T07:05:58;40.85;;;14.80;;
69847;SDS011;57143;55.940;37.496;2022-12-10T07:08:26;42.55;;;15.55;;
69847;SDS011;57143;55.940;37.496;2022-12-10T07:10:54;51.28;;;17.67;;
69847;SDS011;57143;55.940;37.496;2022-12-10T07:13:21;47.93;;;15.07;;
69847;SDS011;57143;55.940;37.496;2022-12-10T07:15:48;49.03;;;15.57;;
69847;SDS011;57143;55.940;37.496;2022-12-10T07:18:16;51.70;;;15.00;;
69847;SDS011;57143;55.940;37.496;2022-12-10T07:20:43;45.70;;;14.93;;
69847;SDS011;57143;55.940;37.496;2022-12-10T07:23:10;53.78;;;15.73;;
69847;SDS011;57143;55.940;37.496;2022-12-10T07:25:38;43.47;;;14.30;;
69847;SDS011;57143;55.940;37.496;2022-12-10T07:28:06;43.58;;;13.02;;
69847;SDS011;57143;55.940;37.496;2022-12-10T07:30:33;42.22;;;14.90;;
69847;SDS011;57143;55.940;37.496;2022-12-10T07:33:00;41.80;;;14.88;;
69847;SDS011;57143;55.940;37.496;2022-12-10T07:35:27;40.78;;;13.60;;
69847;SDS011;57143;55.940;37.496;2022-12-10T07:37:54;42.77;;;14.47;;
69847;SDS011;57143;55.940;37.496;2022-12-10T07:40:21;44.03;;;13.63;;
69847;SDS011;57143;55.940;37.496;2022-12-10T07:42:50;49.33;;;15.52;;
69847;SDS011;57143;55.940;37.496;2022-12-10T07:45:23;39.17;;;13.98;;
69847;SDS011;57143;55.940;37.496;2022-12-10T07:47:50;40.85;;;13.77;;
69847;SDS011;57143;55.940;37.496;2022-12-10T07:50:17;40.90;;;12.93;;
69847;SDS011;57143;55.940;37.496;2022-12-10T07:52:46;53.78;;;14.02;;
69847;SDS011;57143;55.940;37.496;2022-12-10T07:55:13;44.67;;;14.23;;
69847;SDS011;57143;55.940;37.496;2022-12-10T07:57:41;44.38;;;12.93;;
69847;SDS011;57143;55.940;37.496;2022-12-10T08:00:10;43.90;;;13.43;;
69847;SDS011;57143;55.940;37.496;2022-12-10T08:02:38;41.73;;;13.40;;
69847;SDS011;57143;55.940;37.496;2022-12-10T08:05:05;41.88;;;13.68;;
69847;SDS011;57143;55.940;37.496;2022-12-10T08:07:33;39.28;;;13.32;;
69847;SDS011;57143;55.940;37.496;2022-12-10T08:10:00;37.95;;;13.48;;
69847;SDS011;57143;55.940;37.496;2022-12-10T08:12:29;38.95;;;13.23;;
69847;SDS011;57143;55.940;37.496;2022-12-10T08:14:58;45.43;;;12.40;;
69847;SDS011;57143;55.940;37.496;2022-12-10T08:17:31;48.58;;;13.68;;
69847;SDS011;57143;55.940;37.496;2022-12-10T08:20:01;43.00;;;13.32;;
69847;SDS011;57143;55.940;37.496;2022-12-10T08:22:29;45.22;;;14.10;;
69847;SDS011;57143;55.940;37.496;2022-12-10T08:24:59;36.85;;;12.63;;
69847;SDS011;57143;55.940;37.496;2022-12-10T08:27:26;41.80;;;11.03;;
69847;SDS011;57143;55.940;37.496;2022-12-10T08:29:53;37.03;;;11.50;;
69847;SDS011;57143;55.940;37.496;2022-12-10T08:32:21;42.85;;;13.30;;
69847;SDS011;57143;55.940;37.496;2022-12-10T08:34:49;36.95;;;11.25;;
69847;SDS011;57143;55.940;37.496;2022-12-10T08:37:16;42.67;;;13.18;;
69847;SDS011;57143;55.940;37.496;2022-12-10T08:39:43;41.40;;;12.87;;
69847;SDS011;57143;55.940;37.496;2022-12-10T08:42:11;39.47;;;13.60;;
69847;SDS011;57143;55.940;37.496;2022-12-10T08:44:38;39.50;;;12.82;;
69847;SDS011;57143;55.940;37.496;2022-12-10T08:47:05;43.95;;;13.23;;
69847;SDS011;57143;55.940;37.496;2022-12-10T08:49:33;45.67;;;14.23;;
69847;SDS011;57143;55.940;37.496;2022-12-10T08:52:02;43.70;;;13.23;;
69847;SDS011;57143;55.940;37.496;2022-12-10T08:54:29;42.80;;;12.55;;
69847;SDS011;57143;55.940;37.496;2022-12-10T08:56:56;47.83;;;14.82;;
69847;SDS011;57143;55.940;37.496;2022-12-10T08:59:23;52.97;;;14.55;;
69847;SDS011;57143;55.940;37.496;2022-12-10T09:01:51;48.42;;;14.48;;
69847;SDS011;57143;55.940;37.496;2022-12-10T09:04:18;42.53;;;13.43;;
69847;SDS011;57143;55.940;37.496;2022-12-10T09:06:45;47.80;;;13.35;;
69847;SDS011;57143;55.940;37.496;2022-12-10T09:09:14;47.00;;;14.38;;
69847;SDS011;57143;55.940;37.496;2022-12-10T09:11:41;46.63;;;13.25;;
69847;SDS011;57143;55.940;37.496;2022-12-10T09:14:09;49.47;;;14.15;;
69847;SDS011;57143;55.940;37.496;2022-12-10T09:16:36;45.07;;;13.07;;
69847;SDS011;57143;55.940;37.496;2022-12-10T09:19:04;45.67;;;13.90;;
69847;SDS011;57143;55.940;37.496;2022-12-10T09:21:32;55.45;;;13.73;;
69847;SDS011;57143;55.940;37.496;2022-12-10T09:23:59;47.85;;;13.48;;
69847;SDS011;57143;55.940;37.496;2022-12-10T09:26:28;49.22;;;13.55;;
69847;SDS011;57143;55.940;37.496;2022-12-10T09:28:55;41.93;;;13.70;;
69847;SDS011;57143;55.940;37.496;2022-12-10T09:31:23;54.60;;;14.73;;
69847;SDS011;57143;55.940;37.496;2022-12-10T09:33:51;52.75;;;14.02;;
69847;SDS011;57143;55.940;37.496;2022-12-10T09:36:19;54.80;;;15.48;;
69847;SDS011;57143;55.940;37.496;2022-12-10T09:38:47;50.10;;;14.80;;
69847;SDS011;57143;55.940;37.496;2022-12-10T09:41:19;47.80;;;15.00;;
69847;SDS011;57143;55.940;37.496;2022-12-10T09:44:02;47.75;;;13.30;;
69847;SDS011;57143;55.940;37.496;2022-12-10T09:46:39;48.22;;;14.18;;
69847;SDS011;57143;55.940;37.496;2022-12-10T09:49:17;52.08;;;14.02;;
69847;SDS011;57143;55.940;37.496;2022-12-10T09:51:50;47.75;;;15.57;;
69847;SDS011;57143;55.940;37.496;2022-12-10T09:54:24;61.20;;;15.20;;
69847;SDS011;57143;55.940;37.496;2022-12-10T09:56:55;44.38;;;12.00;;
69847;SDS011;57143;55.940;37.496;2022-12-10T09:59:24;52.03;;;15.00;;
69847;SDS011;57143;55.940;37.496;2022-12-10T10:02:00;54.30;;;15.77;;
69847;SDS011;57143;55.940;37.496;2022-12-10T10:04:32;63.92;;;15.30;;
69847;SDS011;57143;55.940;37.496;2022-12-10T10:06:59;62.20;;;16.57;;
69847;SDS011;57143;55.940;37.496;2022-12-10T10:09:26;67.30;;;17.45;;
69847;SDS011;57143;55.940;37.496;2022-12-10T10:11:55;62.53;;;16.42;;
69847;SDS011;57143;55.940;37.496;2022-12-10T10:14:24;60.63;;;15.40;;
69847;SDS011;57143;55.940;37.496;2022-12-10T10:16:55;60.28;;;17.30;;
69847;SDS011;57143;55.940;37.496;2022-12-10T10:19:29;60.20;;;16.63;;
69847;SDS011;57143;55.940;37.496;2022-12-10T10:21:59;61.33;;;17.48;;
69847;SDS011;57143;55.940;37.496;2022-12-10T10:24:28;62.08;;;17.30;;
69847;SDS011;57143;55.940;37.496;2022-12-10T10:27:08;52.17;;;14.95;;
69847;SDS011;57143;55.940;37.496;2022-12-10T10:29:40;56.88;;;17.20;;
69847;SDS011;57143;55.940;37.496;2022-12-10T10:32:10;52.20;;;15.50;;
69847;SDS011;57143;55.940;37.496;2022-12-10T10:34:40;63.28;;;17.05;;
69847;SDS011;57143;55.940;37.496;2022-12-10T10:37:13;60.35;;;16.50;;
69847;SDS011;57143;55.940;37.496;2022-12-10T10:39:46;47.20;;;15.95;;
69847;SDS011;57143;55.940;37.496;2022-12-10T10:42:19;54.38;;;16.77;;
69847;SDS011;57143;55.940;37.496;2022-12-10T10:44:54;54.53;;;15.23;;
69847;SDS011;57143;55.940;37.496;2022-12-10T10:47:24;56.58;;;15.80;;
69847;SDS011;57143;55.940;37.496;2022-12-10T10:49:53;50.75;;;14.90;;
69847;SDS011;57143;55.940;37.496;2022-12-10T10:52:21;46.42;;;13.45;;
69847;SDS011;57143;55.940;37.496;2022-12-10T10:54:48;46.88;;;15.18;;
69847;SDS011;57143;55.940;37.496;2022-12-10T10:57:18;48.00;;;15.70;;
69847;SDS011;57143;55.940;37.496;2022-12-10T10:59:49;46.28;;;16.35;;
69847;SDS011;57143;55.940;37.496;2022-12-10T11:02:20;46.92;;;16.23;;
69847;SDS011;57143;55.940;37.496;2022-12-10T11:04:52;50.67;;;16.48;;
69847;SDS011;57143;55.940;37.496;2022-12-10T11:07:22;51.97;;;16.17;;
69847;SDS011;57143;55.940;37.496;2022-12-10T11:09:52;56.93;;;16.67;;
69847;SDS011;57143;55.940;37.496;2022-12-10T11:18:01;45.42;;;13.63;;
69847;SDS011;57143;55.940;37.496;2022-12-10T11:20:30;42.90;;;13.70;;
69847;SDS011;57143;55.940;37.496;2022-12-10T11:22:59;48.63;;;15.63;;
69847;SDS011;57143;55.940;37.496;2022-12-10T11:25:33;49.78;;;15.90;;
69847;SDS011;57143;55.940;37.496;2022-12-10T11:28:12;47.63;;;15.15;;
69847;SDS011;57143;55.940;37.496;2022-12-10T11:30:53;50.78;;;16.73;;
69847;SDS011;57143;55.940;37.496;2022-12-10T11:33:33;60.08;;;17.00;;
69847;SDS011;57143;55.940;37.496;2022-12-10T11:36:13;51.67;;;16.57;;
69847;SDS011;57143;55.940;37.496;2022-12-10T11:38:53;55.60;;;17.65;;
69847;SDS011;57143;55.940;37.496;2022-12-10T11:41:30;51.58;;;16.35;;
69847;SDS011;57143;55.940;37.496;2022-12-10T11:44:16;46.60;;;15.13;;
69847;SDS011;57143;55.940;37.496;2022-12-10T11:49:46;40.73;;;13.07;;
69847;SDS011;57143;55.940;37.496;2022-12-10T11:52:29;39.42;;;14.38;;
69847;SDS011;57143;55.940;37.496;2022-12-10T11:55:07;49.22;;;14.57;;
69847;SDS011;57143;55.940;37.496;2022-12-10T11:57:47;52.90;;;14.73;;
69847;SDS011;57143;55.940;37.496;2022-12-10T12:00:20;43.97;;;15.23;;
69847;SDS011;57143;55.940;37.496;2022-12-10T12:05:52;46.45;;;14.80;;
69847;SDS011;57143;55.940;37.496;2022-12-10T12:08:33;46.38;;;17.67;;
69847;SDS011;57143;55.940;37.496;2022-12-10T12:11:13;42.10;;;13.77;;
69847;SDS011;57143;55.940;37.496;2022-12-10T12:13:54;44.97;;;14.55;;
69847;SDS011;57143;55.940;37.496;2022-12-10T12:16:27;43.90;;;12.90;;
69847;SDS011;57143;55.940;37.496;2022-12-10T12:18:58;48.55;;;12.43;;
69847;SDS011;57143;55.940;37.496;2022-12-10T12:21:28;40.20;;;12.98;;
69847;SDS011;57143;55.940;37.496;2022-12-10T12:23:56;48.50;;;13.70;;
69847;SDS011;57143;55.940;37.496;2022-12-10T12:26:28;38.10;;;13.38;;
69847;SDS011;57143;55.940;37.496;2022-12-10T12:29:00;47.67;;;14.00;;
69847;SDS011;57143;55.940;37.496;2022-12-10T12:31:41;43.70;;;12.75;;
69847;SDS011;57143;55.940;37.496;2022-12-10T12:34:14;38.78;;;12.10;;
69847;SDS011;57143;55.940;37.496;2022-12-10T12:36:47;46.20;;;14.43;;
69847;SDS011;57143;55.940;37.496;2022-12-10T12:39:17;39.33;;;11.90;;
69847;SDS011;57143;55.940;37.496;2022-12-10T12:41:53;43.83;;;12.63;;
69847;SDS011;57143;55.940;37.496;2022-12-10T12:44:27;42.38;;;13.30;;
69847;SDS011;57143;55.940;37.496;2022-12-10T12:47:05;40.17;;;13.82;;
69847;SDS011;57143;55.940;37.496;2022-12-10T12:49:46;32.63;;;12.75;;
69847;SDS011;57143;55.940;37.496;2022-12-10T12:52:18;47.40;;;14.10;;
69847;SDS011;57143;55.940;37.496;2022-12-10T12:54:52;44.97;;;13.73;;
69847;SDS011;57143;55.940;37.496;2022-12-10T12:57:23;49.85;;;15.20;;
69847;SDS011;57143;55.940;37.496;2022-12-10T13:00:08;47.50;;;15.55;;
69847;SDS011;57143;55.940;37.496;2022-12-10T13:02:46;46.00;;;15.05;;
69847;SDS011;57143;55.940;37.496;2022-12-10T13:05:23;51.80;;;15.63;;
69847;SDS011;57143;55.940;37.496;2022-12-10T13:10:58;44.72;;;13.70;;
69847;SDS011;57143;55.940;37.496;2022-12-10T13:13:31;49.63;;;14.27;;
69847;SDS011;57143;55.940;37.496;2022-12-10T13:19:22;40.00;;;13.32;;
69847;SDS011;57143;55.940;37.496;2022-12-10T13:21:59;58.53;;;18.50;;
69847;SDS011;57143;55.940;37.496;2022-12-10T13:27:41;39.63;;;12.27;;
69847;SDS011;57143;55.940;37.496;2022-12-10T13:33:13;37.00;;;13.48;;
69847;SDS011;57143;55.940;37.496;2022-12-10T13:35:50;34.37;;;13.03;;
69847;SDS011;57143;55.940;37.496;2022-12-10T13:38:24;44.13;;;14.05;;
69847;SDS011;57143;55.940;37.496;2022-12-10T13:41:00;41.33;;;14.32;;
69847;SDS011;57143;55.940;37.496;2022-12-10T13:43:52;41.00;;;13.63;;
69847;SDS011;57143;55.940;37.496;2022-12-10T13:46:51;44.38;;;14.57;;
69847;SDS011;57143;55.940;37.496;2022-12-10T13:49:20;49.30;;;15.37;;
69847;SDS011;57143;55.940;37.496;2022-12-10T13:51:54;39.63;;;13.60;;
69847;SDS011;57143;55.940;37.496;2022-12-10T13:57:40;38.05;;;11.98;;
69847;SDS011;57143;55.940;37.496;2022-12-10T14:00:23;32.30;;;11.52;;
69847;SDS011;57143;55.940;37.496;2022-12-10T14:06:11;38.42;;;12.57;;
69847;SDS011;57143;55.940;37.496;2022-12-10T14:08:45;43.38;;;12.77;;
69847;SDS011;57143;55.940;37.496;2022-12-10T14:11:22;35.20;;;12.15;;
69847;SDS011;57143;55.940;37.496;2022-12-10T14:13:54;36.25;;;11.85;;
69847;SDS011;57143;55.940;37.496;2022-12-10T14:16:24;39.20;;;13.23;;
69847;SDS011;57143;55.940;37.496;2022-12-10T14:18:54;40.60;;;13.40;;
69847;SDS011;57143;55.940;37.496;2022-12-10T14:21:24;46.25;;;14.70;;
69847;SDS011;57143;55.940;37.496;2022-12-10T14:23:53;45.78;;;16.60;;
69847;SDS011;57143;55.940;37.496;2022-12-10T14:26:22;57.17;;;17.75;;
69847;SDS011;57143;55.940;37.496;2022-12-10T14:28:54;45.00;;;15.67;;
69847;SDS011;57143;55.940;37.496;2022-12-10T14:31:24;49.63;;;16.33;;
69847;SDS011;57143;55.940;37.496;2022-12-10T14:33:55;44.08;;;13.75;;
69847;SDS011;57143;55.940;37.496;2022-12-10T14:36:27;39.63;;;13.43;;
69847;SDS011;57143;55.940;37.496;2022-12-10T14:38:58;40.25;;;12.15;;
69847;SDS011;57143;55.940;37.496;2022-12-10T14:41:26;40.77;;;13.13;;
69847;SDS011;57143;55.940;37.496;2022-12-10T14:43:56;39.88;;;13.93;;
69847;SDS011;57143;55.940;37.496;2022-12-10T14:46:25;44.72;;;14.15;;
69847;SDS011;57143;55.940;37.496;2022-12-10T14:48:56;38.25;;;12.13;;
69847;SDS011;57143;55.940;37.496;2022-12-10T14:51:24;48.20;;;14.32;;
69847;SDS011;57143;55.940;37.496;2022-12-10T14:53:53;41.13;;;12.63;;
69847;SDS011;57143;55.940;37.496;2022-12-10T14:56:24;31.88;;;10.70;;
69847;SDS011;57143;55.940;37.496;2022-12-10T14:58:56;35.55;;;11.80;;
69847;SDS011;57143;55.940;37.496;2022-12-10T15:01:29;38.45;;;12.30;;
69847;SDS011;57143;55.940;37.496;2022-12-10T15:03:58;33.58;;;12.68;;